Time;durP1;ratioP1;P1;durP2;ratioP2;P2;SDS_P1;SDS_P2;PMS_P1;PMS_P2;Temp;Humidity;BMP_temperature;BMP_pressure;BME280_temperature;BME280_humidity;BME280_pressure;Samples;Min_cycle;Max_cycle;Signal;HPM_P1;HPM_P2
2022/04/24 00:02:14;;;;;;;15.60;10.63;;;10.40;99.90;;;;;;5004029;28;20211;-78
2022/04/24 00:04:42;;;;;;;13.07;10.07;;;10.40;99.90;;;;;;4999516;28;20219;-76
2022/04/24 00:07:09;;;;;;;18.27;10.83;;;10.40;99.90;;;;;;5004881;28;20237;-77
2022/04/24 00:09:37;;;;;;;15.60;10.50;;;10.50;99.90;;;;;;4997616;28;20290;-76
2022/04/24 00:12:07;;;;;;;17.90;11.00;;;10.40;99.90;;;;;;5001244;28;20210;-78
2022/04/24 00:14:34;;;;;;;16.10;10.80;;;10.40;99.90;;;;;;5002699;28;20211;-77
2022/04/24 00:17:03;;;;;;;16.73;10.60;;;10.40;99.90;;;;;;5004452;28;20225;-75
2022/04/24 00:19:30;;;;;;;16.17;10.67;;;10.40;99.90;;;;;;5003872;28;20238;-77
2022/04/24 00:21:57;;;;;;;16.83;10.77;;;10.40;99.90;;;;;;5006752;28;20206;-79
2022/04/24 00:24:25;;;;;;;14.50;10.90;;;10.40;99.90;;;;;;5006284;28;20206;-78
2022/04/24 00:26:55;;;;;;;15.73;10.63;;;10.40;99.90;;;;;;4999415;28;20207;-77
2022/04/24 00:29:22;;;;;;;16.87;11.70;;;10.40;99.90;;;;;;4996939;28;20235;-76
2022/04/24 00:31:49;;;;;;;16.53;10.97;;;10.40;99.90;;;;;;5005413;28;20249;-76
2022/04/24 00:34:17;;;;;;;13.93;10.40;;;10.40;99.90;;;;;;5001033;28;20634;-76
2022/04/24 00:36:45;;;;;;;16.63;11.50;;;10.40;99.90;;;;;;4995091;28;20690;-75
2022/04/24 00:39:13;;;;;;;14.30;10.33;;;10.40;99.90;;;;;;4997652;28;20231;-76
2022/04/24 00:41:48;;;;;;;15.53;11.03;;;10.30;99.90;;;;;;5000365;28;20333;-76
2022/04/24 00:44:17;;;;;;;18.03;11.20;;;10.30;99.90;;;;;;4996528;28;20210;-77
2022/04/24 00:46:49;;;;;;;18.13;11.87;;;10.30;99.90;;;;;;5000280;28;20207;-76
2022/04/24 00:49:16;;;;;;;16.90;11.17;;;10.20;99.90;;;;;;4997354;28;20214;-77
2022/04/24 00:51:43;;;;;;;16.73;10.93;;;10.20;99.90;;;;;;4997811;28;20226;-77
2022/04/24 00:54:11;;;;;;;17.03;11.03;;;10.20;99.90;;;;;;5001193;28;20272;-77
2022/04/24 00:56:40;;;;;;;17.37;11.20;;;10.20;99.90;;;;;;5001076;28;20212;-77
2022/04/24 00:59:09;;;;;;;15.53;10.70;;;10.10;99.90;;;;;;5000034;28;20268;-76
2022/04/24 01:01:37;;;;;;;15.90;10.17;;;10.10;99.90;;;;;;4998751;28;20202;-77
2022/04/24 01:04:06;;;;;;;17.17;11.17;;;10.10;99.90;;;;;;4996459;28;20214;-76
2022/04/24 01:06:36;;;;;;;16.60;10.67;;;10.00;99.90;;;;;;4999657;28;20226;-76
2022/04/24 01:09:17;;;;;;;14.97;10.77;;;10.10;99.90;;;;;;5001117;28;20213;-76
2022/04/24 01:11:47;;;;;;;15.27;11.47;;;10.00;99.90;;;;;;4998655;28;20210;-77
2022/04/24 01:14:19;;;;;;;18.27;11.63;;;10.00;99.90;;;;;;5002056;28;20259;-76
2022/04/24 01:16:47;;;;;;;16.20;11.23;;;10.00;99.90;;;;;;4997866;28;20232;-77
2022/04/24 01:19:15;;;;;;;17.53;11.93;;;10.00;99.90;;;;;;4995567;28;20249;-77
2022/04/24 01:21:43;;;;;;;18.57;12.00;;;10.00;99.90;;;;;;4994629;28;20214;-77
2022/04/24 01:24:11;;;;;;;15.40;11.07;;;9.90;99.90;;;;;;4999327;28;20215;-76
2022/04/24 01:26:39;;;;;;;19.57;12.00;;;9.90;99.90;;;;;;4996050;28;20889;-76
2022/04/24 01:29:06;;;;;;;19.97;12.10;;;9.80;99.90;;;;;;4997414;28;20206;-77
2022/04/24 01:31:34;;;;;;;18.27;12.80;;;9.80;99.90;;;;;;5001556;28;20214;-76
2022/04/24 01:34:01;;;;;;;18.80;12.13;;;9.70;99.90;;;;;;5005349;28;20250;-77
2022/04/24 01:36:28;;;;;;;15.87;12.00;;;9.70;99.90;;;;;;4995551;28;20209;-77
2022/04/24 01:38:55;;;;;;;16.47;12.03;;;9.70;99.90;;;;;;4999102;28;20735;-77
2022/04/24 01:41:22;;;;;;;20.27;12.50;;;9.60;99.90;;;;;;5000875;28;20613;-77
2022/04/24 01:43:49;;;;;;;21.23;12.93;;;9.60;99.90;;;;;;5024851;28;20628;-76
2022/04/24 01:46:18;;;;;;;18.57;12.77;;;9.50;99.90;;;;;;5017286;28;20983;-78
2022/04/24 01:48:45;;;;;;;17.37;11.73;;;9.50;99.90;;;;;;5012314;28;20208;-79
2022/04/24 01:51:14;;;;;;;19.33;12.47;;;9.40;99.90;;;;;;5031913;28;20203;-77
2022/04/24 01:53:42;;;;;;;20.40;13.10;;;9.50;99.90;;;;;;5021708;28;20214;-75
2022/04/24 01:56:10;;;;;;;19.70;12.30;;;9.40;99.90;;;;;;5027632;28;20291;-77
2022/04/24 01:58:38;;;;;;;19.53;12.13;;;9.40;99.90;;;;;;5033073;28;20361;-77
2022/04/24 02:01:06;;;;;;;18.83;12.17;;;9.30;99.90;;;;;;5028900;28;20226;-76
2022/04/24 02:03:35;;;;;;;18.73;12.37;;;9.30;99.90;;;;;;5031761;28;20211;-77
2022/04/24 02:06:04;;;;;;;17.00;11.83;;;9.30;99.90;;;;;;5025470;28;20213;-77
2022/04/24 02:08:31;;;;;;;21.47;12.73;;;9.20;99.90;;;;;;5026137;28;20265;-77
2022/04/24 02:10:59;;;;;;;17.13;11.57;;;9.20;99.90;;;;;;5029585;28;20210;-76
2022/04/24 02:13:26;;;;;;;19.97;11.80;;;9.20;99.90;;;;;;5025460;28;20670;-76
2022/04/24 02:15:53;;;;;;;21.60;11.83;;;9.20;99.90;;;;;;5022923;28;20279;-76
2022/04/24 02:18:20;;;;;;;14.47;11.47;;;9.10;99.90;;;;;;5023496;28;20209;-76
2022/04/24 02:20:46;;;;;;;21.10;12.00;;;9.20;99.90;;;;;;5023415;28;20959;-77
2022/04/24 02:23:13;;;;;;;20.53;11.97;;;9.10;99.90;;;;;;5022122;28;20236;-77
2022/04/24 02:25:40;;;;;;;17.60;11.10;;;9.10;99.90;;;;;;5021305;28;20376;-77
2022/04/24 02:28:07;;;;;;;16.30;11.40;;;9.10;99.90;;;;;;5018833;28;20261;-76
2022/04/24 02:30:35;;;;;;;16.57;10.40;;;9.10;99.90;;;;;;5020767;28;20617;-78
2022/04/24 02:33:02;;;;;;;19.77;10.87;;;9.10;99.90;;;;;;5005121;28;20680;-77
2022/04/24 02:35:30;;;;;;;14.43;10.10;;;9.00;99.90;;;;;;5023217;28;20495;-77
2022/04/24 02:37:57;;;;;;;16.60;10.97;;;9.00;99.90;;;;;;5022978;28;20218;-77
2022/04/24 02:40:24;;;;;;;15.20;10.37;;;9.00;99.90;;;;;;5020786;28;20613;-76
2022/04/24 02:42:51;;;;;;;15.60;10.53;;;9.00;99.90;;;;;;5019252;28;20225;-76
2022/04/24 02:45:19;;;;;;;18.23;11.43;;;9.00;99.90;;;;;;5002143;28;20640;-76
2022/04/24 02:47:47;;;;;;;16.10;10.43;;;8.90;99.90;;;;;;5023041;28;20202;-77
2022/04/24 02:50:15;;;;;;;16.50;9.87;;;8.90;99.90;;;;;;5022190;28;20209;-77
2022/04/24 02:52:46;;;;;;;14.07;9.80;;;8.90;99.90;;;;;;5023094;28;20218;-76
2022/04/24 02:55:14;;;;;;;14.00;9.97;;;8.90;99.90;;;;;;5018185;28;20222;-78
2022/04/24 02:57:42;;;;;;;14.17;9.80;;;8.90;99.90;;;;;;5024523;28;20654;-77
2022/04/24 03:00:09;;;;;;;14.73;10.23;;;8.90;99.90;;;;;;4999570;28;20273;-76
2022/04/24 03:02:43;;;;;;;14.60;9.70;;;8.80;99.90;;;;;;5021585;28;20237;-77
2022/04/24 03:05:24;;;;;;;13.20;9.07;;;8.80;99.90;;;;;;5018130;28;20900;-77
2022/04/24 03:07:51;;;;;;;12.87;9.10;;;8.80;99.90;;;;;;5017478;28;20219;-76
2022/04/24 03:10:18;;;;;;;14.30;10.17;;;8.80;99.90;;;;;;5021103;28;20269;-77
2022/04/24 03:12:45;;;;;;;19.23;9.77;;;8.80;99.90;;;;;;5024959;28;20297;-76
2022/04/24 03:15:14;;;;;;;12.43;8.63;;;8.80;99.90;;;;;;5025819;28;20238;-77
2022/04/24 03:17:42;;;;;;;15.80;9.43;;;8.80;99.90;;;;;;5026609;28;20235;-78
2022/04/24 03:20:11;;;;;;;13.77;9.13;;;8.70;99.90;;;;;;5020620;28;20272;-75
2022/04/24 03:22:38;;;;;;;13.50;9.50;;;8.80;99.90;;;;;;5021506;28;20705;-77
2022/04/24 03:25:07;;;;;;;15.60;9.13;;;8.70;99.90;;;;;;5021982;28;20230;-79
2022/04/24 03:27:34;;;;;;;14.67;9.47;;;8.70;99.90;;;;;;5020567;28;20277;-76
2022/04/24 03:30:02;;;;;;;13.40;8.80;;;8.70;99.90;;;;;;5021413;28;20207;-78
2022/04/24 03:32:32;;;;;;;14.00;9.00;;;8.70;99.90;;;;;;5021494;28;20250;-76
2022/04/24 03:35:00;;;;;;;14.73;9.07;;;8.70;99.90;;;;;;5018873;28;20269;-76
2022/04/24 03:37:27;;;;;;;15.97;9.10;;;8.70;99.90;;;;;;5016921;28;20721;-77
2022/04/24 03:39:54;;;;;;;16.43;9.50;;;8.70;99.90;;;;;;5019625;28;20233;-76
2022/04/24 03:42:21;;;;;;;15.33;8.97;;;8.60;99.90;;;;;;5020214;28;20324;-76
2022/04/24 03:44:48;;;;;;;13.57;9.27;;;8.60;99.90;;;;;;5018763;28;20213;-77
2022/04/24 03:47:15;;;;;;;14.77;8.77;;;8.60;99.90;;;;;;5020461;28;20740;-76
2022/04/24 03:49:42;;;;;;;14.70;9.03;;;8.50;99.90;;;;;;5019866;28;20237;-76
2022/04/24 03:52:11;;;;;;;13.67;9.13;;;8.50;99.90;;;;;;5021191;28;20571;-76
2022/04/24 03:54:38;;;;;;;13.87;8.73;;;8.40;99.90;;;;;;5020308;28;20261;-77
2022/04/24 03:57:06;;;;;;;16.47;9.33;;;8.40;99.90;;;;;;5020409;28;20209;-76
2022/04/24 03:59:33;;;;;;;13.83;9.10;;;8.30;99.90;;;;;;5019368;28;20538;-77
2022/04/24 04:02:00;;;;;;;13.17;8.27;;;8.30;99.90;;;;;;5020922;28;20206;-75
2022/04/24 04:04:28;;;;;;;13.33;8.43;;;8.30;99.90;;;;;;5023576;28;20213;-78
2022/04/24 04:06:55;;;;;;;11.70;8.77;;;8.30;99.90;;;;;;5021888;28;20276;-77
2022/04/24 04:09:22;;;;;;;12.37;8.47;;;8.30;99.90;;;;;;5015981;28;20255;-77
2022/04/24 04:11:49;;;;;;;12.20;8.90;;;8.20;99.90;;;;;;5022450;28;20249;-77
2022/04/24 04:14:16;;;;;;;12.73;8.37;;;8.30;99.90;;;;;;5016381;28;20202;-76
2022/04/24 04:16:42;;;;;;;13.47;9.13;;;8.20;99.90;;;;;;5022602;28;20208;-77
2022/04/24 04:19:09;;;;;;;11.63;8.20;;;8.20;99.90;;;;;;5003899;28;20601;-78
2022/04/24 04:21:37;;;;;;;11.47;8.23;;;8.20;99.90;;;;;;5008803;28;20315;-77
2022/04/24 04:24:04;;;;;;;12.53;8.23;;;8.20;99.90;;;;;;5022145;28;20245;-76
2022/04/24 04:26:32;;;;;;;11.13;8.13;;;8.20;99.90;;;;;;5018871;28;20244;-77
2022/04/24 04:28:59;;;;;;;12.00;8.97;;;8.10;99.90;;;;;;5016809;28;20236;-77
2022/04/24 04:31:26;;;;;;;13.43;8.47;;;8.20;99.90;;;;;;5015558;28;20206;-76
2022/04/24 04:33:53;;;;;;;13.50;8.43;;;8.10;99.90;;;;;;5018657;28;20298;-76
2022/04/24 04:36:20;;;;;;;14.03;8.40;;;8.10;99.90;;;;;;5005469;28;20226;-76
2022/04/24 04:38:47;;;;;;;10.83;7.37;;;8.10;99.90;;;;;;5005837;28;20214;-78
2022/04/24 04:41:14;;;;;;;12.43;8.30;;;8.10;99.90;;;;;;5020299;28;20424;-77
2022/04/24 04:43:41;;;;;;;12.97;8.20;;;8.10;99.90;;;;;;5015190;28;20213;-77
2022/04/24 04:46:08;;;;;;;11.47;8.07;;;8.10;99.90;;;;;;5013651;28;20209;-76
2022/04/24 04:48:35;;;;;;;10.43;7.47;;;8.10;99.90;;;;;;5004815;28;20228;-76
2022/04/24 04:51:02;;;;;;;11.77;8.03;;;8.10;99.90;;;;;;5020319;28;20202;-78
2022/04/24 04:53:29;;;;;;;13.40;7.77;;;8.10;99.90;;;;;;5018493;28;20218;-76
2022/04/24 04:55:56;;;;;;;12.63;7.50;;;8.10;99.90;;;;;;5020495;28;20561;-78
2022/04/24 04:58:23;;;;;;;10.73;7.77;;;8.20;99.90;;;;;;5019807;28;20252;-77
2022/04/24 05:00:53;;;;;;;12.93;8.17;;;8.20;99.90;;;;;;5020878;28;20292;-78
2022/04/24 05:03:24;;;;;;;9.93;7.23;;;8.20;99.90;;;;;;4999336;28;20973;-77
2022/04/24 05:05:54;;;;;;;10.10;6.93;;;8.20;99.90;;;;;;5014494;28;20603;-77
2022/04/24 05:08:21;;;;;;;11.37;7.63;;;8.20;99.90;;;;;;5002782;28;20354;-76
2022/04/24 05:10:48;;;;;;;11.87;8.13;;;8.20;99.90;;;;;;5019359;28;20221;-77
2022/04/24 05:13:15;;;;;;;11.20;7.40;;;8.30;99.90;;;;;;5024105;28;20210;-77
2022/04/24 05:15:43;;;;;;;12.00;7.40;;;8.30;99.90;;;;;;5018325;28;20198;-77
2022/04/24 05:18:10;;;;;;;10.57;7.10;;;8.30;99.90;;;;;;5014700;28;20195;-76
2022/04/24 05:20:38;;;;;;;11.03;7.73;;;8.30;99.90;;;;;;5019106;28;20293;-77
2022/04/24 05:23:07;;;;;;;13.53;7.53;;;8.40;99.90;;;;;;5003147;28;20214;-77
2022/04/24 05:25:34;;;;;;;13.53;7.30;;;8.40;99.90;;;;;;5016685;28;20676;-76
2022/04/24 05:28:03;;;;;;;10.43;7.40;;;8.40;99.90;;;;;;5005789;28;20562;-76
2022/04/24 05:30:30;;;;;;;10.47;7.33;;;8.50;99.90;;;;;;5010248;28;20210;-76
2022/04/24 05:32:58;;;;;;;11.80;7.70;;;8.50;99.90;;;;;;5020793;28;20601;-75
2022/04/24 05:35:26;;;;;;;9.40;7.10;;;8.60;99.90;;;;;;5020691;28;20232;-77
2022/04/24 05:37:53;;;;;;;9.07;6.63;;;8.60;99.90;;;;;;5021614;28;20218;-77
2022/04/24 05:40:20;;;;;;;9.47;7.03;;;8.60;99.90;;;;;;5027531;28;20229;-77
2022/04/24 05:42:55;;;;;;;12.60;7.47;;;8.60;99.90;;;;;;5019323;28;20302;-78
2022/04/24 05:45:24;;;;;;;13.77;7.63;;;8.70;99.90;;;;;;5018410;28;20210;-77
2022/04/24 05:47:56;;;;;;;9.80;7.43;;;8.70;99.90;;;;;;5002959;28;20212;-77
2022/04/24 05:50:24;;;;;;;13.77;7.07;;;8.80;99.90;;;;;;5018412;28;20762;-76
2022/04/24 05:52:55;;;;;;;10.80;7.83;;;8.80;99.90;;;;;;5022250;28;20219;-77
2022/04/24 05:55:23;;;;;;;10.27;7.10;;;8.80;99.90;;;;;;5022841;28;20575;-76
2022/04/24 05:57:50;;;;;;;10.00;6.40;;;8.90;99.90;;;;;;5017352;28;20295;-78
2022/04/24 06:00:18;;;;;;;9.07;6.20;;;8.90;99.90;;;;;;5024354;28;20261;-78
2022/04/24 06:02:51;;;;;;;8.43;6.57;;;9.00;99.90;;;;;;5017756;28;20290;-76
2022/04/24 06:05:18;;;;;;;11.77;7.30;;;9.00;99.90;;;;;;5024099;28;20239;-77
2022/04/24 06:07:45;;;;;;;9.03;6.57;;;9.10;99.90;;;;;;5021966;28;20216;-78
2022/04/24 06:10:12;;;;;;;12.13;6.90;;;9.20;99.90;;;;;;5023331;28;20267;-78
2022/04/24 06:12:54;;;;;;;10.80;6.37;;;9.90;99.90;;;;;;5022056;28;20194;-78
2022/04/24 06:15:24;;;;;;;7.93;5.77;;;10.90;99.90;;;;;;5005426;28;20610;-78
2022/04/24 06:17:57;;;;;;;7.53;6.17;;;12.00;99.90;;;;;;5035742;28;20210;-78
2022/04/24 06:20:27;;;;;;;8.03;5.20;;;13.10;99.90;;;;;;5016547;28;20234;-79
2022/04/24 06:22:56;;;;;;;9.87;5.50;;;14.10;99.90;;;;;;5020156;28;20205;-79
2022/04/24 06:25:26;;;;;;;8.33;5.83;;;14.60;99.90;;;;;;5021972;28;20198;-79
2022/04/24 06:27:54;;;;;;;6.60;5.50;;;15.10;99.90;;;;;;5002044;28;20239;-79
2022/04/24 06:30:23;;;;;;;6.93;5.90;;;15.40;99.90;;;;;;5002867;28;20242;-79
2022/04/24 06:32:50;;;;;;;7.33;5.53;;;15.80;99.90;;;;;;5001346;28;20595;-79
2022/04/24 06:35:18;;;;;;;9.48;5.80;;;16.10;99.90;;;;;;5023390;28;20270;-79
2022/04/24 06:37:47;;;;;;;9.48;5.07;;;16.70;99.90;;;;;;5024454;28;20703;-80
2022/04/24 06:40:15;;;;;;;6.45;4.97;;;17.10;99.90;;;;;;5020408;28;20973;-79
2022/04/24 06:42:59;;;;;;;9.68;5.25;;;17.60;99.90;;;;;;5018380;28;20802;-81
2022/04/24 06:45:27;;;;;;;8.55;5.07;;;18.00;99.90;;;;;;5023760;28;20206;-79
2022/04/24 06:47:56;;;;;;;6.07;4.78;;;18.20;99.90;;;;;;5006735;28;20272;-80
2022/04/24 06:50:24;;;;;;;6.28;4.85;;;18.40;99.70;;;;;;5004584;28;20265;-78
2022/04/24 06:53:05;;;;;;;7.75;4.85;;;18.60;98.50;;;;;;5008867;28;20767;-79
2022/04/24 06:55:34;;;;;;;7.03;4.82;;;18.80;97.00;;;;;;5021042;28;20573;-81
2022/04/24 06:58:01;;;;;;;6.95;4.93;;;19.70;98.10;;;;;;5020654;28;20625;-79
2022/04/24 07:00:29;;;;;;;5.55;4.90;;;19.00;96.40;;;;;;5019866;28;20317;-80
2022/04/24 07:03:18;;;;;;;7.00;4.85;;;19.30;95.40;;;;;;5002571;28;20256;-80
2022/04/24 07:05:45;;;;;;;8.80;4.95;;;19.20;94.50;;;;;;5019068;28;20210;-80
2022/04/24 07:08:12;;;;;;;5.78;5.03;;;19.00;94.60;;;;;;5016376;28;20557;-81
2022/04/24 07:10:40;;;;;;;6.30;4.88;;;18.80;94.40;;;;;;5015380;28;20265;-80
2022/04/24 07:13:07;;;;;;;5.05;4.53;;;19.10;94.10;;;;;;5016077;28;20202;-80
2022/04/24 07:15:36;;;;;;;5.57;4.93;;;19.10;94.10;;;;;;5004749;28;20206;-79
2022/04/24 07:18:03;;;;;;;7.05;4.82;;;19.20;93.70;;;;;;5014054;28;20206;-79
2022/04/24 07:20:30;;;;;;;7.57;4.88;;;19.30;93.30;;;;;;5005616;28;20279;-79
2022/04/24 07:23:02;;;;;;;5.35;4.85;;;19.50;93.50;;;;;;5016939;28;20241;-79
2022/04/24 07:25:34;;;;;;;9.30;5.30;;;19.80;92.30;;;;;;4998350;28;20300;-80
2022/04/24 07:28:01;;;;;;;7.80;5.20;;;19.80;92.20;;;;;;5001608;28;20213;-80
2022/04/24 07:30:28;;;;;;;6.80;4.80;;;;;;;;;;5014559;28;20575;-77
2022/04/24 07:32:57;;;;;;;5.90;4.50;;;20.30;91.10;;;;;;5003700;28;20203;-80
2022/04/24 07:35:25;;;;;;;5.85;5.03;;;20.30;90.90;;;;;;5015660;28;20672;-81
2022/04/24 07:37:53;;;;;;;5.93;5.10;;;20.40;91.00;;;;;;5002228;28;20256;-81
2022/04/24 07:40:21;;;;;;;7.00;4.97;;;20.30;90.60;;;;;;4999215;28;20296;-80
2022/04/24 07:42:56;;;;;;;5.80;4.75;;;20.40;90.70;;;;;;5020719;28;20624;-82
2022/04/24 07:45:30;;;;;;;9.60;5.03;;;20.40;90.10;;;;;;5020981;28;20290;-80
2022/04/24 07:47:58;;;;;;;5.18;4.55;;;20.30;90.20;;;;;;5017034;28;20606;-81
2022/04/24 07:50:29;;;;;;;6.03;5.07;;;20.40;89.60;;;;;;5016456;28;20491;-80
2022/04/24 07:52:57;;;;;;;6.43;4.80;;;20.40;89.10;;;;;;5012824;28;20245;-81
2022/04/24 07:55:25;;;;;;;5.55;4.93;;;20.40;90.10;;;;;;5012127;28;20272;-80
2022/04/24 07:57:53;;;;;;;5.85;4.60;;;20.60;89.70;;;;;;5018550;28;20264;-80
2022/04/24 08:00:23;;;;;;;5.80;5.13;;;20.40;88.70;;;;;;5006123;28;20245;-79
2022/04/24 08:02:57;;;;;;;7.10;5.25;;;20.20;88.60;;;;;;5014173;28;20217;-81
2022/04/24 08:05:36;;;;;;;6.18;4.97;;;19.90;89.00;;;;;;5017575;28;20276;-80
2022/04/24 08:08:06;;;;;;;7.13;5.15;;;20.00;90.00;;;;;;4996874;28;20291;-81
2022/04/24 08:10:37;;;;;;;7.80;5.30;;;20.40;89.60;;;;;;5012055;28;20211;-80
2022/04/24 08:13:05;;;;;;;5.90;4.93;;;20.50;87.60;;;;;;5018188;28;20325;-82
2022/04/24 08:15:40;;;;;;;7.28;4.90;;;20.50;88.20;;;;;;5014225;28;20387;-82
2022/04/24 08:18:07;;;;;;;8.07;5.65;;;20.70;87.60;;;;;;5015570;28;20644;-81
2022/04/24 08:20:37;;;;;;;6.65;5.93;;;20.70;87.30;;;;;;5003251;28;20618;-80
2022/04/24 08:23:05;;;;;;;5.75;5.07;;;20.60;87.60;;;;;;5022757;28;20228;-83
2022/04/24 08:25:35;;;;;;;6.82;5.03;;;20.50;87.60;;;;;;5027592;28;20205;-81
2022/04/24 08:28:10;;;;;;;6.65;5.35;;;20.50;87.60;;;;;;5033624;28;20544;-82
2022/04/24 08:30:44;;;;;;;6.43;5.70;;;20.70;86.20;;;;;;5031026;28;20206;-82
2022/04/24 08:33:11;;;;;;;6.45;4.93;;;20.60;85.90;;;;;;5023234;28;20247;-82
2022/04/24 08:35:39;;;;;;;11.85;7.32;;;20.60;87.10;;;;;;5009433;28;20210;-82
2022/04/24 08:38:06;;;;;;;6.22;5.63;;;20.70;87.70;;;;;;5008462;28;20756;-81
2022/04/24 08:40:33;;;;;;;5.60;5.10;;;20.80;86.90;;;;;;5022765;28;20230;-83
2022/04/24 08:43:14;;;;;;;8.15;5.72;;;20.80;86.90;;;;;;5095004;27;257478;-83
2022/04/24 08:45:44;;;;;;;6.40;5.63;;;21.00;87.40;;;;;;5111227;28;20221;-82
2022/04/24 08:48:11;;;;;;;8.07;5.32;;;21.10;86.00;;;;;;5086053;28;20245;-81
2022/04/24 08:50:39;;;;;;;8.27;5.72;;;21.10;85.40;;;;;;5082955;28;20203;-83
2022/04/24 08:53:08;;;;;;;6.70;5.35;;;21.00;84.90;;;;;;5104520;28;20219;-83
2022/04/24 08:55:34;;;;;;;6.53;5.47;;;21.00;85.00;;;;;;5104132;28;20620;-82
2022/04/24 08:58:02;;;;;;;7.65;5.68;;;20.90;85.30;;;;;;5102218;28;20264;-82
2022/04/24 09:00:29;;;;;;;7.95;5.97;;;20.60;84.10;;;;;;5101272;28;20219;-82
2022/04/24 09:02:57;;;;;;;7.15;5.38;;;20.60;85.30;;;;;;5102657;28;20219;-82
2022/04/24 09:05:26;;;;;;;8.18;5.50;;;20.50;85.70;;;;;;5100886;28;20319;-83
2022/04/24 09:08:04;;;;;;;6.15;5.40;;;20.60;86.70;;;;;;5102473;28;20216;-82
2022/04/24 09:10:56;;;;;;;8.93;6.20;;;20.60;84.60;;;;;;5103300;28;20234;-82
2022/04/24 09:13:29;;;;;;;6.43;5.80;;;20.40;85.10;;;;;;5093622;28;20335;-82
2022/04/24 09:16:02;;;;;;;8.77;6.03;;;20.40;86.20;;;;;;5102536;28;20282;-83
2022/04/24 09:18:40;;;;;;;8.15;5.93;;;20.40;86.00;;;;;;5103726;28;20592;-83
2022/04/24 09:21:10;;;;;;;10.30;5.40;;;20.40;85.40;;;;;;5087121;28;20195;-80
2022/04/24 09:23:37;;;;;;;7.53;5.50;;;20.40;86.40;;;;;;5111930;28;20219;-84
2022/04/24 09:26:05;;;;;;;8.95;5.65;;;20.50;86.20;;;;;;5118759;28;20199;-80
2022/04/24 09:28:38;;;;;;;7.80;5.18;;;20.60;86.10;;;;;;5100996;28;20198;-82
2022/04/24 09:31:06;;;;;;;8.48;6.15;;;20.70;84.90;;;;;;5092921;28;20518;-82
2022/04/24 09:33:41;;;;;;;7.03;6.18;;;20.50;85.60;;;;;;5105960;28;20235;-82
2022/04/24 09:36:09;;;;;;;8.63;5.63;;;20.40;87.00;;;;;;5090336;28;20204;-81
2022/04/24 09:38:44;;;;;;;6.88;5.25;;;20.50;86.60;;;;;;5107355;28;20207;-82
2022/04/24 09:41:23;;;;;;;7.88;5.60;;;20.60;87.00;;;;;;5108275;28;20207;-81
2022/04/24 09:43:50;;;;;;;8.02;5.75;;;20.60;86.80;;;;;;5100810;28;20655;-82
2022/04/24 09:46:28;;;;;;;6.35;5.47;;;20.50;87.30;;;;;;5086108;28;20195;-83
2022/04/24 09:49:00;;;;;;;10.27;5.78;;;20.40;85.80;;;;;;5088714;28;20226;-83
2022/04/24 09:51:27;;;;;;;8.48;5.43;;;20.20;85.80;;;;;;5099513;28;20221;-81
2022/04/24 09:54:02;;;;;;;6.80;5.53;;;20.00;85.90;;;;;;5077293;28;20199;-82
2022/04/24 09:56:31;;;;;;;8.95;5.90;;;20.10;87.60;;;;;;5087933;28;20655;-82
2022/04/24 09:58:58;;;;;;;7.30;5.63;;;20.10;87.20;;;;;;5087893;28;20208;-82
2022/04/24 10:01:27;;;;;;;7.50;5.53;;;20.20;87.60;;;;;;5090232;28;20350;-82
2022/04/24 10:03:55;;;;;;;7.72;6.00;;;20.20;88.10;;;;;;5088041;28;20287;-84
2022/04/24 10:06:24;;;;;;;8.25;5.53;;;20.30;87.80;;;;;;5077681;28;20227;-82
2022/04/24 10:08:51;;;;;;;7.03;5.05;;;20.30;87.00;;;;;;5091761;28;20250;-81
2022/04/24 10:11:19;;;;;;;7.53;5.68;;;20.20;87.40;;;;;;5090774;28;20200;-81
2022/04/24 10:13:48;;;;;;;8.52;6.50;;;20.30;86.70;;;;;;5090931;28;20261;-82
2022/04/24 10:16:25;;;;;;;7.93;5.95;;;20.00;86.00;;;;;;5096939;28;20223;-81
2022/04/24 10:19:21;;;;;;;7.60;6.30;;;20.00;85.80;;;;;;5104539;28;20230;-81
2022/04/24 10:22:03;;;;;;;10.25;5.90;;;19.80;85.50;;;;;;5067268;28;20246;-82
2022/04/24 10:24:43;;;;;;;8.55;5.90;;;19.80;86.40;;;;;;5101612;28;20207;-80
2022/04/24 10:27:11;;;;;;;10.70;6.07;;;19.80;86.50;;;;;;5084645;28;20224;-81
2022/04/24 10:29:52;;;;;;;6.40;5.45;;;19.90;86.80;;;;;;5102641;28;20203;-82
2022/04/24 10:32:32;;;;;;;8.77;5.50;;;19.70;85.70;;;;;;5080970;28;20214;-82
2022/04/24 10:35:00;;;;;;;7.15;5.45;;;19.70;86.80;;;;;;5089418;28;20207;-82
2022/04/24 10:37:29;;;;;;;6.32;5.53;;;19.80;87.50;;;;;;5094188;28;20216;-83
2022/04/24 10:39:58;;;;;;;7.35;5.47;;;19.80;87.70;;;;;;5092122;28;20231;-83
2022/04/24 10:42:34;;;;;;;6.78;5.35;;;19.90;87.20;;;;;;5087883;28;20326;-83
2022/04/24 10:45:07;;;;;;;7.68;5.80;;;19.90;87.30;;;;;;5086939;28;20264;-79
2022/04/24 10:47:49;;;;;;;7.70;6.20;;;19.90;86.80;;;;;;5084168;28;20230;-83
2022/04/24 10:50:20;;;;;;;8.02;6.00;;;19.90;86.50;;;;;;5089299;28;20562;-82
2022/04/24 10:52:53;;;;;;;8.55;6.22;;;19.90;87.60;;;;;;5072012;28;20219;-83
2022/04/24 10:55:25;;;;;;;8.02;5.30;;;19.90;87.90;;;;;;5089364;28;20257;-83
2022/04/24 10:58:00;;;;;;;9.02;6.38;;;20.00;87.10;;;;;;5070912;28;20242;-83
2022/04/24 11:00:34;;;;;;;11.77;5.85;;;20.00;86.50;;;;;;5084182;28;20261;-83
2022/04/24 11:03:14;;;;;;;7.45;5.03;;;19.90;86.60;;;;;;5087339;28;20273;-82
2022/04/24 11:05:45;;;;;;;8.50;6.13;;;20.00;87.40;;;;;;5089331;28;20216;-82
2022/04/24 11:08:23;;;;;;;6.53;5.88;;;20.00;87.30;;;;;;5077443;28;20223;-83
2022/04/24 11:10:50;;;;;;;7.07;5.75;;;20.00;86.70;;;;;;5089811;28;20229;-85
2022/04/24 11:13:19;;;;;;;8.88;5.57;;;19.90;86.90;;;;;;5089910;28;20512;-82
2022/04/24 11:15:49;;;;;;;8.23;5.25;;;19.80;86.30;;;;;;5088907;28;20196;-82
2022/04/24 11:18:27;;;;;;;7.10;5.65;;;19.70;87.20;;;;;;5086486;28;20705;-82
2022/04/24 11:21:04;;;;;;;5.97;5.15;;;19.70;88.00;;;;;;5091796;28;20200;-83
2022/04/24 11:23:37;;;;;;;6.50;5.05;;;19.70;88.30;;;;;;5084113;28;20547;-82
2022/04/24 11:26:09;;;;;;;5.65;5.05;;;19.80;87.90;;;;;;5072563;28;20295;-82
2022/04/24 11:28:42;;;;;;;9.77;5.38;;;20.00;86.80;;;;;;5086301;28;20204;-81
2022/04/24 11:31:14;;;;;;;9.02;4.97;;;20.00;86.00;;;;;;5080015;28;20236;-83
2022/04/24 11:34:05;;;;;;;11.15;5.43;;;20.20;86.20;;;;;;5096749;28;20228;-88
2022/04/24 11:36:34;;;;;;;7.93;5.30;;;21.00;85.40;;;;;;5083863;28;20444;-84
2022/04/24 11:39:07;;;;;;;7.25;5.32;;;20.30;82.70;;;;;;5084011;28;20238;-85
2022/04/24 11:41:38;;;;;;;6.70;5.30;;;20.20;82.90;;;;;;5074680;28;20231;-84
2022/04/24 11:50:13;;;;;;;7.82;4.70;;;20.10;85.10;;;;;;5077976;28;20199;-83
2022/04/24 11:53:00;;;;;;;12.15;4.93;;;20.20;84.00;;;;;;5065654;28;20214;-84
2022/04/24 11:56:01;;;;;;;5.82;4.35;;;20.30;83.60;;;;;;5088148;28;20230;-83
2022/04/24 11:58:14;;;;;;;7.35;4.25;;;20.40;83.10;;;;;;5086414;28;20208;-82
2022/04/24 12:00:41;;;;;;;4.97;4.47;;;20.60;82.00;;;;;;5084749;28;20274;-85
2022/04/24 12:03:09;;;;;;;5.38;4.20;;;20.70;81.50;;;;;;5088263;28;20231;-82
2022/04/24 12:05:36;;;;;;;5.45;4.35;;;20.90;81.60;;;;;;5084595;28;20196;-81
2022/04/24 12:08:04;;;;;;;5.03;4.22;;;21.00;79.80;;;;;;5091706;28;20365;-82
2022/04/24 12:10:31;;;;;;;4.85;4.30;;;21.20;80.10;;;;;;5071150;28;20591;-84
2022/04/24 12:13:06;;;;;;;5.72;3.97;;;21.20;79.60;;;;;;5068551;28;20212;-83
2022/04/24 12:15:34;;;;;;;4.68;3.78;;;21.30;79.00;;;;;;5087348;28;20202;-85
2022/04/24 12:18:01;;;;;;;4.57;3.78;;;21.30;77.20;;;;;;5086848;28;20215;-83
2022/04/24 12:20:41;;;;;;;5.53;3.70;;;21.50;77.70;;;;;;5082873;28;20287;-81
2022/04/24 12:23:09;;;;;;;4.43;4.00;;;21.40;76.50;;;;;;5082423;28;20235;-82
2022/04/24 12:25:50;;;;;;;4.90;3.65;;;21.10;76.50;;;;;;5086791;28;20195;-83
2022/04/24 12:28:39;;;;;;;4.75;3.95;;;20.70;75.10;;;;;;5063163;28;20256;-82
2022/04/24 12:31:07;;;;;;;4.95;3.83;;;20.70;77.80;;;;;;5083110;28;20208;-81
2022/04/24 12:33:52;;;;;;;6.32;3.78;;;20.90;77.20;;;;;;5087458;28;20199;-83
2022/04/24 12:36:20;;;;;;;4.50;3.75;;;20.80;75.50;;;;;;5083503;28;20286;-83
2022/04/24 12:39:01;;;;;;;4.85;3.47;;;20.80;76.50;;;;;;5067472;28;20204;-83
2022/04/24 12:41:35;;;;;;;7.53;3.85;;;20.90;76.30;;;;;;5080796;28;20631;-82
2022/04/24 12:44:05;;;;;;;23.38;6.10;;;20.80;76.80;;;;;;5085794;28;20326;-82
2022/04/24 12:46:34;;;;;;;4.82;3.33;;;21.10;75.50;;;;;;5082894;28;20203;-83
2022/04/24 12:49:03;;;;;;;4.03;3.47;;;21.00;75.70;;;;;;5080653;28;20201;-83
2022/04/24 12:51:30;;;;;;;4.85;4.00;;;21.10;76.70;;;;;;5086800;28;20296;-81
2022/04/24 12:53:59;;;;;;;5.75;3.20;;;21.20;76.20;;;;;;5081972;28;20589;-83
2022/04/24 12:56:26;;;;;;;4.75;3.75;;;21.30;75.40;;;;;;5084155;28;20655;-80
2022/04/24 12:58:53;;;;;;;5.30;3.10;;;21.30;74.30;;;;;;5070023;28;20635;-82
2022/04/24 13:01:23;;;;;;;5.60;3.40;;;21.30;75.00;;;;;;5087800;28;20226;-84
2022/04/24 13:03:54;;;;;;;5.63;3.42;;;21.30;75.40;;;;;;5081906;28;20215;-83